Time;durP1;ratioP1;P1;durP2;ratioP2;P2;SDS_P1;SDS_P2;PMS_P1;PMS_P2;Temp;Humidity;BMP_temperature;BMP_pressure;BME280_temperature;BME280_humidity;BME280_pressure;Samples;Min_cycle;Max_cycle;Signal;HPM_P1;HPM_P2
2021/06/10 03:32:19;;;;;;;18.93;16.97;;;;;;;19.75;63.14;99209.56;7471650;23;20302;-85
2021/06/10 03:35:40;;;;;;;18.63;16.93;;;;;;;19.42;64.20;99204.16;6900566;28;20254;-84
2021/06/10 03:39:01;;;;;;;20.27;18.17;;;;;;;19.40;64.12;99198.94;6901983;28;20211;-84
2021/06/10 03:42:23;;;;;;;18.30;16.37;;;;;;;19.37;64.45;99209.56;6900299;28;20247;-85
2021/06/10 03:45:44;;;;;;;18.60;16.77;;;;;;;19.53;64.41;99197.75;6901608;28;20214;-82
2021/06/10 03:49:06;;;;;;;18.43;16.53;;;;;;;19.52;63.93;99185.97;6895845;28;20203;-82
2021/06/10 03:52:28;;;;;;;17.13;15.33;;;;;;;19.32;64.49;99193.06;6894746;28;20230;-82
2021/06/10 03:55:49;;;;;;;16.97;15.27;;;;;;;19.46;64.67;99216.25;6880406;28;20191;-82
2021/06/10 03:59:11;;;;;;;15.33;13.83;;;;;;;19.02;65.88;99217.19;6893795;28;20205;-82
2021/06/10 04:02:32;;;;;;;16.00;14.40;;;;;;;19.19;66.21;99209.78;6904165;28;20242;-82
2021/06/10 04:05:55;;;;;;;17.67;15.87;;;;;;;19.57;64.69;99201.66;6904646;28;20215;-82
2021/06/10 04:09:16;;;;;;;21.10;17.37;;;;;;;19.78;64.43;99204.38;6902697;28;20211;-82
2021/06/10 04:12:37;;;;;;;20.83;18.73;;;;;;;19.84;63.92;99177.91;6903468;28;20706;-82
2021/06/10 04:15:58;;;;;;;20.90;18.83;;;;;;;20.02;63.82;99199.47;6904488;28;20207;-82
2021/06/10 04:19:19;;;;;;;20.93;18.77;;;;;;;19.61;64.98;99189.94;6904753;28;20216;-82
2021/06/10 04:22:42;;;;;;;19.17;17.27;;;;;;;19.45;65.31;99198.19;6889612;28;20227;-82
2021/06/10 04:26:03;;;;;;;19.30;17.50;;;;;;;19.35;65.99;99198.06;6905071;28;20216;-82
2021/06/10 04:29:24;;;;;;;17.63;15.93;;;;;;;19.55;66.05;99212.84;6904567;28;20204;-82
2021/06/10 04:32:46;;;;;;;14.60;13.20;;;;;;;19.75;64.83;99212.28;6881273;28;20248;-82
2021/06/10 04:36:09;;;;;;;14.27;12.97;;;;;;;20.07;64.40;99210.50;6881951;28;20205;-82
2021/06/10 04:39:32;;;;;;;14.23;12.93;;;;;;;19.47;65.33;99179.63;6882919;28;20275;-82
2021/06/10 04:42:53;;;;;;;14.93;13.53;;;;;;;19.79;65.31;99208.78;6908109;28;20234;-82
2021/06/10 04:46:14;;;;;;;14.40;13.10;;;;;;;20.38;64.45;99199.66;6883778;28;20208;-82
2021/06/10 04:49:36;;;;;;;16.93;15.43;;;;;;;20.77;63.10;99210.16;6881378;28;20229;-82
2021/06/10 04:52:57;;;;;;;15.63;14.13;;;;;;;20.90;62.39;99217.16;6879884;28;20228;-82
2021/06/10 04:56:20;;;;;;;14.00;12.70;;;;;;;20.54;63.30;99201.47;6879534;28;20205;-82
2021/06/10 04:59:41;;;;;;;12.60;11.47;;;;;;;20.39;64.08;99203.22;6897912;28;20205;-83
2021/06/10 05:03:03;;;;;;;13.20;11.90;;;;;;;20.70;63.37;99189.53;6880129;28;20256;-81
2021/06/10 05:06:24;;;;;;;12.77;11.67;;;;;;;20.63;62.98;99172.47;6880082;28;20197;-82
2021/06/10 05:09:45;;;;;;;11.20;10.10;;;;;;;20.92;63.21;99217.72;6873693;28;20583;-83
2021/06/10 05:13:08;;;;;;;13.10;11.90;;;;;;;21.57;61.84;99220.94;6899577;28;20224;-82
2021/06/10 05:16:29;;;;;;;12.90;11.73;;;;;;;21.84;61.04;99202.44;6902565;28;20877;-83
2021/06/10 05:19:50;;;;;;;11.17;10.27;;;;;;;22.14;60.28;99213.53;6902197;28;20227;-83
2021/06/10 05:23:11;;;;;;;12.63;11.40;;;;;;;22.48;59.22;99204.59;6874669;28;20244;-83
2021/06/10 05:26:32;;;;;;;12.60;11.50;;;;;;;22.71;59.47;99190.34;6889785;28;20223;-83
2021/06/10 05:29:55;;;;;;;13.37;11.40;;;;;;;22.62;58.65;99211.22;6886562;28;20205;-83
2021/06/10 05:33:16;;;;;;;12.87;11.60;;;;;;;22.61;59.52;99214.25;6873768;28;20243;-82
2021/06/10 05:36:37;;;;;;;12.67;11.60;;;;;;;22.89;58.85;99208.22;6875125;28;20220;-82
2021/06/10 05:39:58;;;;;;;11.03;10.03;;;;;;;23.13;57.96;99196.38;6875655;28;20223;-82
2021/06/10 05:43:22;;;;;;;11.57;10.57;;;;;;;23.05;58.04;99198.84;6874839;28;20250;-82
2021/06/10 05:46:45;;;;;;;9.90;9.10;;;;;;;22.39;58.92;99184.22;6887342;28;20201;-82
2021/06/10 05:50:07;;;;;;;11.53;10.43;;;;;;;22.86;59.36;99204.09;6900758;28;20206;-82
2021/06/10 05:53:29;;;;;;;12.47;11.37;;;;;;;22.82;59.10;99221.41;6900742;28;20233;-82
2021/06/10 05:56:50;;;;;;;12.63;11.43;;;;;;;23.13;57.44;99215.63;6901313;28;20272;-82
2021/06/10 06:00:12;;;;;;;11.90;10.90;;;;;;;23.59;57.19;99208.19;6894419;28;20204;-82
2021/06/10 06:03:35;;;;;;;11.20;10.17;;;;;;;23.99;56.67;99219.91;6898678;28;20236;-82
2021/06/10 06:06:56;;;;;;;10.23;9.33;;;;;;;24.29;55.72;99222.53;6902862;28;20215;-82
2021/06/10 06:10:19;;;;;;;11.27;10.17;;;;;;;23.81;55.78;99216.91;6883354;28;20206;-82
2021/06/10 06:13:47;;;;;;;15.63;10.13;;;;;;;24.00;56.12;99171.97;6900771;28;20263;-83
2021/06/10 06:17:09;;;;;;;10.77;9.83;;;;;;;24.56;54.66;99214.66;6899857;28;20196;-83
2021/06/10 06:20:31;;;;;;;10.03;9.23;;;;;;;24.13;55.06;99217.38;6897477;28;20210;-84
2021/06/10 06:23:57;;;;;;;11.87;10.87;;;;;;;23.82;56.58;99189.09;6901242;28;20591;-81
2021/06/10 06:27:18;;;;;;;11.40;10.20;;;;;;;24.80;54.17;99236.88;6901177;28;20196;-82
2021/06/10 06:30:39;;;;;;;11.40;10.40;;;;;;;25.14;53.26;99221.16;6899296;28;20263;-82
2021/06/10 06:34:00;;;;;;;10.90;9.90;;;;;;;25.92;50.87;99212.41;6874066;28;20217;-82
2021/06/10 06:37:23;;;;;;;10.60;9.50;;;;;;;26.90;47.86;99224.31;6885195;28;20260;-82
2021/06/10 06:40:44;;;;;;;9.27;8.50;;;;;;;27.10;46.72;99209.34;6899441;28;20231;-82
2021/06/10 06:44:06;;;;;;;11.70;10.47;;;;;;;26.05;49.74;99233.78;6896254;28;20679;-82
2021/06/10 06:47:27;;;;;;;10.97;10.07;;;;;;;24.88;53.85;99217.78;6900265;28;20211;-82
2021/06/10 06:50:48;;;;;;;10.57;9.60;;;;;;;25.58;52.89;99222.69;6893884;28;20603;-81
2021/06/10 06:54:11;;;;;;;9.50;8.70;;;;;;;25.59;51.46;99229.84;6883211;28;20210;-81
2021/06/10 06:57:33;;;;;;;11.37;10.20;;;;;;;25.21;52.18;99235.44;6873095;28;20212;-81
2021/06/10 07:00:54;;;;;;;10.73;9.13;;;;;;;25.73;50.57;99224.47;6871703;28;20284;-82
2021/06/10 07:04:16;;;;;;;11.13;9.90;;;;;;;26.02;50.77;99248.19;6873332;28;20213;-82
2021/06/10 07:07:38;;;;;;;9.73;8.93;;;;;;;25.64;51.42;99245.56;6872841;28;20220;-82
2021/06/10 07:11:01;;;;;;;10.10;9.23;;;;;;;25.87;52.49;99234.53;6885002;28;20228;-82
2021/06/10 07:14:24;;;;;;;10.17;9.17;;;;;;;25.48;51.88;99211.75;6898436;28;20220;-82
2021/06/10 07:17:45;;;;;;;10.20;9.37;;;;;;;25.55;52.20;99241.78;6885654;28;20622;-82
2021/06/10 07:21:09;;;;;;;9.23;8.43;;;;;;;26.20;51.08;99238.31;6893239;28;20239;-82
2021/06/10 07:24:30;;;;;;;9.60;8.70;;;;;;;25.67;52.04;99236.69;6898444;28;20207;-82
2021/06/10 07:27:53;;;;;;;9.10;8.20;;;;;;;27.59;48.73;99240.06;6890837;28;20222;-82
2021/06/10 07:31:14;;;;;;;8.83;7.97;;;;;;;28.17;45.57;99222.59;6877579;28;20236;-83
2021/06/10 07:34:37;;;;;;;8.30;7.60;;;;;;;28.98;44.97;99233.59;6899876;28;20208;-83
2021/06/10 07:37:58;;;;;;;8.57;7.77;;;;;;;26.94;48.48;99252.22;6894165;28;20285;-84
2021/06/10 07:41:19;;;;;;;8.27;7.47;;;;;;;26.53;49.09;99159.84;6891559;28;20246;-84
2021/06/10 07:44:42;;;;;;;8.97;8.20;;;;;;;27.63;47.81;99250.25;6901384;28;20208;-84
2021/06/10 07:48:04;;;;;;;8.33;7.63;;;;;;;27.43;47.20;99253.38;6901515;28;20201;-84
2021/06/10 07:51:25;;;;;;;9.33;8.63;;;;;;;27.01;46.81;99209.19;6901628;28;20240;-84
2021/06/10 07:54:46;;;;;;;8.60;7.90;;;;;;;28.13;45.89;99243.75;6902019;28;20673;-85
2021/06/10 07:58:09;;;;;;;8.17;7.37;;;;;;;27.97;44.84;99242.44;6901488;28;20196;-84
2021/06/10 08:01:33;;;;;;;7.60;6.90;;;;;;;27.83;43.87;99230.50;6876520;28;20697;-87
2021/06/10 08:04:54;;;;;;;6.33;5.80;;;;;;;27.82;41.59;99239.94;6880062;28;20209;-84
2021/06/10 08:08:15;;;;;;;6.40;5.90;;;;;;;28.27;41.68;99213.25;6880524;28;20205;-84
2021/06/10 08:11:36;;;;;;;6.50;6.00;;;;;;;27.83;40.83;99213.06;6904251;28;20596;-82
2021/06/10 08:14:58;;;;;;;7.70;7.10;;;;;;;28.01;43.26;99223.22;6907177;28;20366;-85
2021/06/10 08:18:20;;;;;;;7.90;7.13;;;;;;;27.58;43.47;99243.97;6904994;28;20197;-84
2021/06/10 08:21:42;;;;;;;6.87;6.27;;;;;;;28.39;41.81;99211.63;6900423;28;20232;-84
2021/06/10 08:25:06;;;;;;;6.60;6.00;;;;;;;27.92;40.73;99200.09;6900662;28;20219;-85
2021/06/10 08:28:30;;;;;;;7.33;6.67;;;;;;;28.65;40.30;99228.50;6879964;28;20213;-87
2021/06/10 08:31:52;;;;;;;7.63;6.93;;;;;;;30.16;37.29;99231.88;6880423;28;20300;-83
2021/06/10 08:35:14;;;;;;;7.17;6.60;;;;;;;29.63;39.31;99220.00;6885966;28;20450;-83
2021/06/10 08:38:37;;;;;;;7.60;6.90;;;;;;;29.73;39.63;99226.09;6902791;28;20237;-83
2021/06/10 08:41:58;;;;;;;7.37;6.60;;;;;;;29.52;38.74;99140.78;6904357;28;20237;-83
2021/06/10 08:45:20;;;;;;;7.70;7.10;;;;;;;30.90;36.14;99216.81;6906592;28;20201;-84
2021/06/10 08:48:43;;;;;;;8.17;7.47;;;;;;;29.49;37.71;99136.66;6905494;28;20206;-83
2021/06/10 08:52:09;;;;;;;8.30;7.60;;;;;;;28.60;40.97;99226.66;6905456;28;20275;-83
2021/06/10 08:55:31;;;;;;;8.10;7.30;;;;;;;30.47;37.28;99219.53;6905499;28;20195;-83
2021/06/10 08:58:52;;;;;;;7.63;6.93;;;;;;;31.30;36.16;99219.09;6905676;28;20223;-85
2021/06/10 09:02:13;;;;;;;7.07;6.47;;;;;;;30.93;36.40;99221.72;6906147;28;20310;-83
2021/06/10 09:05:35;;;;;;;8.07;7.37;;;;;;;30.17;37.74;99231.56;6906088;28;20214;-84
2021/06/10 09:08:58;;;;;;;9.07;7.43;;;;;;;30.46;36.63;99217.06;6906546;28;20202;-82
2021/06/10 09:12:20;;;;;;;8.10;7.30;;;;;;;30.56;37.16;99156.34;6908179;28;20250;-83
2021/06/10 09:15:41;;;;;;;8.60;7.90;;;;;;;29.69;38.48;99218.72;6904576;28;20200;-84
2021/06/10 09:19:08;;;;;;;9.27;8.47;;;;;;;28.27;39.45;99138.34;6906494;28;20212;-83
2021/06/10 09:22:34;;;;;;;8.43;7.73;;;;;;;29.52;38.53;99211.06;6904657;28;20714;-83
2021/06/10 09:26:08;;;;;;;9.17;7.70;;;;;;;29.84;38.21;99205.22;6905187;28;20202;-85
2021/06/10 09:29:38;;;;;;;8.90;8.00;;;;;;;30.87;36.34;99220.25;6904157;28;20200;-84
2021/06/10 09:33:13;;;;;;;8.40;7.13;;;;;;;30.87;38.08;99215.50;6904791;28;20246;-83
2021/06/10 09:36:40;;;;;;;7.07;6.37;;;;;;;31.33;36.18;99206.47;6905927;28;20206;-86
2021/06/10 09:40:04;;;;;;;7.80;7.03;;;;;;;31.94;34.88;99220.75;6905442;28;20196;-83
2021/06/10 09:43:41;;;;;;;8.40;7.70;;;;;;;32.24;34.08;99188.09;6904302;28;20234;-83
2021/06/10 09:47:03;;;;;;;8.03;7.33;;;;;;;31.81;34.23;99193.91;6903185;28;20185;-81
2021/06/10 09:50:27;;;;;;;8.30;7.60;;;;;;;32.15;33.82;99192.94;6900913;28;20201;-83
2021/06/10 09:53:49;;;;;;;7.57;6.97;;;;;;;32.31;33.91;99172.50;6902273;28;20672;-85
2021/06/10 09:57:12;;;;;;;7.57;6.93;;;;;;;31.89;35.42;99197.81;6901289;28;20700;-81
2021/06/10 10:00:35;;;;;;;7.80;7.10;;;;;;;32.25;35.01;99198.97;6897504;28;20235;-83
2021/06/10 10:04:01;;;;;;;7.80;7.10;;;;;;;32.74;33.89;99186.16;6901048;28;20222;-82
2021/06/10 10:07:24;;;;;;;7.80;7.13;;;;;;;31.62;34.73;99187.88;6902330;28;20223;-81
2021/06/10 10:10:46;;;;;;;8.57;7.87;;;;;;;31.58;34.82;99153.44;6893172;28;20240;-82
2021/06/10 10:14:12;;;;;;;7.70;7.00;;;;;;;32.75;32.92;99173.81;6900189;28;20681;-81
2021/06/10 10:17:35;;;;;;;8.90;8.10;;;;;;;32.02;33.71;99164.09;6904211;28;20193;-82
2021/06/10 10:20:58;;;;;;;8.03;7.30;;;;;;;32.23;34.12;99172.50;6902509;28;20222;-82
2021/06/10 10:24:19;;;;;;;8.73;7.93;;;;;;;31.88;33.73;99166.31;6892689;28;20229;-83
2021/06/10 10:27:41;;;;;;;9.17;8.37;;;;;;;31.97;33.06;99175.44;6874936;28;20233;-83
2021/06/10 10:31:04;;;;;;;9.87;8.87;;;;;;;31.15;36.53;99175.03;6875494;28;20267;-82
2021/06/10 10:34:29;;;;;;;9.07;8.17;;;;;;;31.96;34.63;99150.69;6875698;28;20201;-83
2021/06/10 10:37:50;;;;;;;8.27;7.50;;;;;;;32.00;34.99;99143.25;6875833;28;20219;-83
2021/06/10 10:41:14;;;;;;;8.43;7.83;;;;;;;32.88;33.18;99156.81;6892596;28;20227;-83
2021/06/10 10:44:36;;;;;;;8.90;8.10;;;;;;;33.50;32.13;99154.69;6900087;28;20211;-82
2021/06/10 10:47:59;;;;;;;9.33;8.43;;;;;;;32.24;33.91;99132.28;6902036;28;20238;-84
2021/06/10 10:51:30;;;;;;;9.17;8.37;;;;;;;32.79;32.99;99147.69;6900866;28;20276;-83
2021/06/10 10:55:30;;;;;;;10.43;9.43;;;;;;;32.82;32.67;99148.97;6893071;28;20222;-85
2021/06/10 10:59:09;;;;;;;9.97;9.27;;;;;;;31.54;34.62;99141.31;6875415;28;20280;-86
2021/06/10 11:02:30;;;;;;;10.77;9.90;;;;;;;31.32;34.04;99138.75;6874068;28;20236;-83
2021/06/10 11:05:51;;;;;;;11.03;10.00;;;;;;;32.54;32.93;99122.75;6879299;28;20581;-85
2021/06/10 11:09:15;;;;;;;9.40;8.70;;;;;;;33.67;30.94;99104.16;6874148;28;20211;-83
2021/06/10 11:12:50;;;;;;;9.90;8.90;;;;;;;33.35;32.56;99121.00;6874614;28;20244;-83
2021/06/10 11:16:11;;;;;;;10.43;9.40;;;;;;;33.40;33.45;99126.38;6874298;28;20729;-83
2021/06/10 11:19:48;;;;;;;11.30;10.33;;;;;;;31.60;34.35;99120.47;6873800;28;20208;-83
2021/06/10 11:23:13;;;;;;;9.60;8.70;;;;;;;32.80;33.99;99104.63;6874031;28;20233;-83
2021/06/10 11:26:46;;;;;;;9.73;8.83;;;;;;;32.74;32.43;99119.13;6874712;28;20270;-83
2021/06/10 11:30:25;;;;;;;10.43;9.43;;;;;;;32.24;33.02;99099.66;6873975;28;20198;-83
2021/06/10 11:33:48;;;;;;;9.67;8.73;;;;;;;33.18;31.79;99105.22;6874389;28;20202;-83
2021/06/10 11:37:09;;;;;;;10.47;9.50;;;;;;;32.50;32.87;99108.66;6873411;28;20251;-83
2021/06/10 11:40:31;;;;;;;8.97;8.10;;;;;;;34.17;30.39;99096.25;6873953;28;20207;-82
2021/06/10 11:43:55;;;;;;;9.40;8.50;;;;;;;34.43;30.01;99099.47;6874054;28;20239;-82
2021/06/10 11:47:28;;;;;;;9.03;8.33;;;;;;;34.61;29.94;99098.00;6874289;28;20233;-84
2021/06/10 11:50:54;;;;;;;9.37;8.67;;;;;;;33.37;32.52;99099.13;6874363;28;20230;-84
2021/06/10 11:54:17;;;;;;;9.50;8.73;;;;;;;33.34;31.73;99085.81;6875648;28;20211;-83
2021/06/10 11:57:38;;;;;;;8.90;8.20;;;;;;;32.92;31.81;99090.72;6874874;28;20225;-83
2021/06/10 12:01:09;;;;;;;8.40;7.70;;;;;;;33.77;30.69;99084.16;6874146;28;20227;-83
2021/06/10 12:04:43;;;;;;;9.27;8.37;;;;;;;33.76;28.45;99076.88;6902170;28;20228;-83
2021/06/10 12:08:20;;;;;;;8.27;7.57;;;;;;;33.28;30.73;99074.06;6899461;28;20195;-83
2021/06/10 12:11:48;;;;;;;8.47;7.87;;;;;;;32.88;31.68;99067.41;6899525;28;20235;-82
2021/06/10 12:15:28;;;;;;;8.83;7.93;;;;;;;33.57;30.83;99071.06;6885631;28;20715;-83
2021/06/10 12:18:52;;;;;;;8.57;7.97;;;;;;;33.58;30.48;99061.50;6872161;28;20195;-83
2021/06/10 12:22:13;;;;;;;8.37;7.60;;;;;;;32.78;30.81;99070.63;6872969;28;20264;-82
2021/06/10 12:25:34;;;;;;;8.20;7.60;;;;;;;33.43;30.66;99061.38;6872555;28;20227;-83
2021/06/10 12:28:56;;;;;;;7.40;6.67;;;;;;;34.06;29.40;99044.69;6875059;28;20566;-83
2021/06/10 12:32:25;;;;;;;7.30;6.70;;;;;;;33.62;29.32;99050.44;6899240;28;20235;-83
2021/06/10 12:35:50;;;;;;;7.77;7.10;;;;;;;32.82;31.25;99035.25;6898431;28;20188;-83
2021/06/10 12:39:13;;;;;;;7.33;6.73;;;;;;;32.57;30.77;98996.41;6899115;28;20195;-82
2021/06/10 12:42:34;;;;;;;7.87;7.17;;;;;;;32.03;30.51;98989.97;6898693;28;20258;-83
2021/06/10 12:46:02;;;;;;;6.83;6.23;;;;;;;32.59;30.40;99042.38;6899909;28;20212;-82
2021/06/10 12:49:39;;;;;;;7.20;6.63;;;;;;;32.18;31.06;99028.41;6902824;28;20669;-84
2021/06/10 12:53:09;;;;;;;7.47;6.83;;;;;;;32.69;30.25;99033.56;6904259;28;20604;-83
2021/06/10 12:56:50;;;;;;;6.90;6.30;;;;;;;32.89;30.67;99027.13;6904475;28;20194;-82
2021/06/10 13:00:13;;;;;;;7.13;6.63;;;;;;;32.22;31.43;99042.50;6904208;28;20204;-85
2021/06/10 13:03:34;;;;;;;6.90;6.37;;;;;;;31.63;35.30;99035.31;6903536;28;20284;-82
2021/06/10 13:06:55;;;;;;;6.87;6.27;;;;;;;30.62;37.04;98962.94;6889817;28;20221;-83
2021/06/10 13:10:34;;;;;;;6.70;6.20;;;;;;;29.44;39.64;99047.09;6878000;28;20734;-83
2021/06/10 13:13:56;;;;;;;6.57;5.73;;;;;;;28.91;41.22;99030.47;6877786;28;20199;-83
2021/06/10 13:17:18;;;;;;;7.17;6.17;;;;;;;28.06;43.68;99042.88;6877807;28;20316;-82
2021/06/10 13:20:47;;;;;;;5.77;5.30;;;;;;;28.40;39.00;99041.25;6877388;28;20231;-84
2021/06/10 13:24:12;;;;;;;6.80;6.20;;;;;;;29.82;36.28;99035.13;6877318;28;20215;-86
2021/06/10 13:27:36;;;;;;;5.93;5.33;;;;;;;28.62;37.03;99040.44;6878282;28;20218;-83
2021/06/10 13:31:13;;;;;;;6.60;5.60;;;;;;;28.22;39.52;99035.84;6890460;28;20233;-82
2021/06/10 13:34:46;;;;;;;6.10;5.60;;;;;;;28.35;38.59;99034.97;6882456;28;20213;-83
2021/06/10 13:38:08;;;;;;;4.67;4.37;;;;;;;29.82;35.33;99035.13;6877026;28;20211;-85
2021/06/10 13:41:31;;;;;;;4.77;4.37;;;;;;;29.23;35.28;99041.28;6876887;28;20240;-83
2021/06/10 13:44:54;;;;;;;4.87;4.47;;;;;;;29.57;34.79;99037.84;6876419;28;20202;-83
2021/06/10 13:48:15;;;;;;;4.27;3.97;;;;;;;29.64;33.28;98990.91;6876676;28;20661;-83
2021/06/10 13:51:37;;;;;;;5.30;4.63;;;;;;;29.73;33.98;99033.47;6891502;28;20232;-82
2021/06/10 13:54:58;;;;;;;4.70;4.30;;;;;;;29.22;33.76;98991.59;6887961;28;20218;-85
2021/06/10 13:58:19;;;;;;;5.13;4.73;;;;;;;29.70;33.82;99042.44;6875800;28;20204;-83
2021/06/10 14:01:41;;;;;;;5.37;4.87;;;;;;;29.40;34.40;99034.97;6875310;28;20232;-82
2021/06/10 14:05:03;;;;;;;5.67;5.00;;;;;;;29.98;34.69;99052.16;6875787;28;20215;-83
2021/06/10 14:08:24;;;;;;;5.33;4.83;;;;;;;29.72;35.35;99004.03;6875424;28;20208;-82
2021/06/10 14:11:46;;;;;;;5.40;4.90;;;;;;;30.08;33.83;99049.84;6876426;28;20227;-83
2021/06/10 14:15:08;;;;;;;4.73;4.37;;;;;;;30.38;33.69;99046.13;6876526;28;20241;-84
2021/06/10 14:18:30;;;;;;;4.63;4.33;;;;;;;30.16;33.17;99012.09;6858386;28;20206;-83
2021/06/10 14:21:52;;;;;;;4.77;4.47;;;;;;;30.74;32.79;99054.16;6875585;28;20231;-83
2021/06/10 14:25:13;;;;;;;4.90;4.40;;;;;;;30.76;32.83;99022.06;6876100;28;20212;-83
2021/06/10 14:28:37;;;;;;;5.10;4.60;;;;;;;30.13;33.59;98907.88;6875699;28;20218;-83
2021/06/10 14:35:38;;;;;;;4.27;3.97;;;;;;;31.08;32.79;99029.81;6877700;28;20184;-84
2021/06/10 14:38:59;;;;;;;4.97;4.57;;;;;;;31.29;32.36;99014.03;6874739;28;20213;-83
2021/06/10 14:42:21;;;;;;;4.43;4.03;;;;;;;31.66;30.92;99018.75;6874884;28;20247;-83
2021/06/10 14:45:42;;;;;;;4.60;4.10;;;;;;;31.88;31.10;99012.88;6875192;28;20572;-83
2021/06/10 14:49:04;;;;;;;4.40;4.10;;;;;;;31.69;30.52;98986.56;6874916;28;20213;-83
2021/06/10 14:52:27;;;;;;;5.10;4.63;;;;;;;31.93;31.54;99009.91;6874250;28;20232;-84
2021/06/10 14:55:48;;;;;;;5.30;4.90;;;;;;;32.34;31.50;99029.47;6884285;28;20208;-84
2021/06/10 14:59:09;;;;;;;5.60;5.10;;;;;;;32.39;31.05;99020.06;6901036;28;20227;-83
2021/06/10 15:02:33;;;;;;;4.20;3.80;;;;;;;27.59;36.83;99057.19;6901560;28;20284;-82
2021/06/10 15:05:54;;;;;;;3.80;3.50;;;;;;;27.56;38.22;99075.28;6895674;28;20204;-83
2021/06/10 15:09:17;;;;;;;5.77;3.53;;;;;;;27.67;37.82;99068.38;6896918;28;20205;-81
2021/06/10 15:12:38;;;;;;;5.67;3.73;;;;;;;27.35;38.44;99053.81;6885174;28;20225;-83
2021/06/10 15:15:59;;;;;;;3.73;3.40;;;;;;;27.22;38.24;99087.88;6874845;28;20207;-83
2021/06/10 15:19:21;;;;;;;4.70;3.73;;;;;;;27.19;40.29;99083.78;6886563;28;20206;-85
2021/06/10 15:22:42;;;;;;;6.07;4.43;;;;;;;26.60;41.88;99077.38;6886328;28;20232;-83
2021/06/10 15:26:06;;;;;;;5.53;5.03;;;;;;;25.68;44.27;99078.97;6894303;28;20220;-83
2021/06/10 15:29:31;;;;;;;7.83;4.53;;;;;;;25.48;44.37;99089.44;6874261;28;20252;-83
2021/06/10 15:33:13;;;;;;;5.27;4.77;;;;;;;25.88;44.29;99100.78;6873732;28;20234;-84
2021/06/10 15:36:34;;;;;;;5.63;5.13;;;;;;;25.17;47.32;99096.38;6900618;28;20334;-84
2021/06/10 15:39:56;;;;;;;5.50;5.00;;;;;;;26.25;43.82;99080.66;6900873;28;20207;-84
2021/06/10 15:43:18;;;;;;;7.03;5.80;;;;;;;26.63;41.99;99079.50;6888634;28;20256;-84
2021/06/10 15:46:39;;;;;;;5.00;4.60;;;;;;;27.82;40.63;99056.19;6880097;28;20256;-84
2021/06/10 15:50:01;;;;;;;5.00;4.60;;;;;;;28.75;38.87;99095.03;6898756;28;20212;-83
2021/06/10 15:53:22;;;;;;;5.17;4.77;;;;;;;26.06;44.46;99100.00;6902371;28;20225;-87
2021/06/10 15:56:44;;;;;;;4.93;4.47;;;;;;;26.55;46.23;99072.72;6902713;28;20685;-86
2021/06/10 16:00:08;;;;;;;4.87;4.37;;;;;;;27.16;43.04;99081.63;6901472;28;20218;-83
2021/06/10 16:03:29;;;;;;;4.77;4.37;;;;;;;27.59;43.45;99065.50;6900249;28;20235;-87
2021/06/10 16:06:51;;;;;;;6.63;4.67;;;;;;;27.08;43.74;99037.19;6902005;28;20208;-83
2021/06/10 16:10:12;;;;;;;5.43;4.97;;;;;;;27.15;43.84;99077.19;6895948;28;20205;-91
2021/06/10 16:13:33;;;;;;;4.70;4.30;;;;;;;27.46;43.02;99038.66;6882180;28;20232;-84
2021/06/10 16:16:56;;;;;;;4.77;4.37;;;;;;;27.31;43.37;99037.00;6895162;23;20234;-76
2021/06/10 16:20:18;;;;;;;4.77;4.43;;;;;;;27.02;45.14;99024.56;6866114;28;20244;-77
2021/06/10 16:23:39;;;;;;;5.13;4.73;;;;;;;27.67;43.75;99021.28;6869382;28;20288;-77
2021/06/10 16:27:04;;;;;;;7.23;6.50;;;;;;;27.95;43.42;99035.94;6878781;28;20213;-76
2021/06/10 16:30:25;;;;;;;5.00;4.60;;;;;;;28.33;41.57;99020.59;6874404;28;20228;-77
2021/06/10 16:33:51;;;;;;;5.03;4.63;;;;;;;28.66;41.06;99028.38;6875001;28;20250;-79
2021/06/10 16:37:12;;;;;;;5.30;4.80;;;;;;;28.32;41.47;99025.31;6875867;28;20678;-79
2021/06/10 16:40:33;;;;;;;5.63;5.10;;;;;;;28.33;42.63;99021.44;6897326;28;20212;-78
2021/06/10 16:43:56;;;;;;;5.00;4.60;;;;;;;28.35;41.33;99029.41;6899045;28;20228;-78
2021/06/10 16:47:17;;;;;;;5.23;4.80;;;;;;;27.82;42.67;99034.00;6899601;28;20209;-78
2021/06/10 16:50:44;;;;;;;6.47;4.67;;;;;;;28.08;41.81;99024.78;6890659;28;20209;-80
2021/06/10 16:54:06;;;;;;;5.20;4.80;;;;;;;28.13;40.51;99005.28;6896538;28;20205;-80
2021/06/10 16:57:27;;;;;;;5.57;5.17;;;;;;;27.86;42.36;99002.59;6880977;28;20208;-81
2021/06/10 17:00:55;;;;;;;5.30;4.90;;;;;;;28.13;42.73;99010.81;6898088;28;20685;-80
2021/06/10 17:04:17;;;;;;;5.53;5.13;;;;;;;27.78;43.31;98964.53;6896841;28;20303;-80
2021/06/10 17:07:39;;;;;;;5.80;5.20;;;;;;;28.23;43.03;99031.94;6871676;28;20215;-80
2021/06/10 17:11:00;;;;;;;6.00;5.50;;;;;;;26.35;46.61;98962.44;6878402;28;20217;-80
2021/06/10 17:14:23;;;;;;;5.80;5.30;;;;;;;25.14;49.41;98954.25;6893345;28;20299;-78
2021/06/10 17:17:45;;;;;;;5.70;5.20;;;;;;;26.56;46.95;98988.66;6898520;28;20237;-78
2021/06/10 17:21:06;;;;;;;5.63;5.23;;;;;;;27.17;46.48;99033.44;6889700;28;20222;-78
2021/06/10 17:24:32;;;;;;;5.47;5.07;;;;;;;27.32;47.35;99032.31;6893255;28;20250;-79
2021/06/10 17:27:53;;;;;;;6.57;5.87;;;;;;;27.84;46.50;99032.56;6886985;28;20243;-79
2021/06/10 17:31:17;;;;;;;5.50;4.90;;;;;;;27.66;45.64;98941.25;6890060;28;20202;-79
2021/06/10 17:34:38;;;;;;;6.07;5.30;;;;;;;28.16;45.94;99031.56;6879744;28;20301;-79
2021/06/10 17:37:59;;;;;;;7.40;5.60;;;;;;;28.13;46.07;99034.97;6881222;28;20217;-79
2021/06/10 17:41:41;;;;;;;5.70;5.30;;;;;;;28.01;46.86;99043.03;6891433;28;20224;-79
2021/06/10 17:45:04;;;;;;;5.40;5.00;;;;;;;27.95;45.60;98980.50;6891479;28;20233;-79
2021/06/10 17:48:25;;;;;;;6.37;5.77;;;;;;;28.32;46.10;99050.28;6888856;28;20571;-79
2021/06/10 17:51:47;;;;;;;5.50;5.10;;;;;;;28.09;43.77;99040.31;6884081;28;20252;-79
2021/06/10 17:55:09;;;;;;;5.63;5.20;;;;;;;27.78;43.58;98963.72;6897233;28;20643;-80
2021/06/10 17:58:33;;;;;;;6.33;5.10;;;;;;;28.19;42.90;98983.81;6897188;28;20705;-84
2021/06/10 18:01:56;;;;;;;5.50;5.00;;;;;;;28.66;40.37;99022.81;6894389;28;20209;-80
2021/06/10 18:05:19;;;;;;;5.63;5.13;;;;;;;28.45;42.36;99030.03;6897337;28;20204;-81
2021/06/10 18:08:40;;;;;;;5.63;5.03;;;;;;;28.51;41.54;99019.63;6875316;23;20237;-84
2021/06/10 18:12:01;;;;;;;6.47;5.93;;;;;;;28.40;44.14;99004.38;6866900;28;20213;-84
2021/06/10 18:15:24;;;;;;;5.73;5.07;;;;;;;28.58;41.24;99014.44;6848421;28;20203;-84
2021/06/10 18:18:45;;;;;;;5.90;5.40;;;;;;;28.56;42.78;99028.66;6847506;28;20222;-84
2021/06/10 18:22:06;;;;;;;5.57;5.17;;;;;;;28.66;43.75;99020.03;6854721;28;20577;-84
2021/06/10 18:25:29;;;;;;;5.70;5.20;;;;;;;28.65;43.15;99023.97;6869394;28;20275;-84
2021/06/10 18:28:50;;;;;;;5.87;5.37;;;;;;;28.32;44.87;99024.50;6851240;28;20609;-84
2021/06/10 18:32:13;;;;;;;5.93;5.30;;;;;;;28.26;44.93;99026.56;6869495;28;20672;-83
2021/06/10 18:35:34;;;;;;;6.87;5.30;;;;;;;28.34;44.99;99039.72;6869005;28;20216;-83
2021/06/10 18:38:55;;;;;;;6.23;5.73;;;;;;;27.93;45.62;99038.19;6868349;28;20228;-83
2021/06/10 18:42:17;;;;;;;6.97;5.80;;;;;;;27.54;46.12;99033.22;6867613;28;20229;-84
2021/06/10 18:45:38;;;;;;;6.60;6.00;;;;;;;27.56;45.56;99035.69;6869080;28;20215;-83
2021/06/10 18:49:00;;;;;;;6.40;5.90;;;;;;;27.48;45.86;99044.72;6868749;28;20217;-84
2021/06/10 18:52:23;;;;;;;6.70;6.10;;;;;;;27.20;46.32;98994.03;6866675;28;20213;-84
2021/06/10 18:55:47;;;;;;;8.23;6.17;;;;;;;27.72;45.95;99040.56;6867384;28;20233;-84
2021/06/10 18:59:08;;;;;;;7.00;6.30;;;;;;;27.71;46.43;99038.94;6868131;28;20217;-83
2021/06/10 19:02:29;;;;;;;7.17;6.47;;;;;;;27.48;46.95;99037.22;6866896;28;20233;-83
2021/06/10 19:05:52;;;;;;;7.00;6.30;;;;;;;27.52;47.45;99046.56;6868339;28;20255;-85
2021/06/10 19:09:13;;;;;;;6.60;6.03;;;;;;;27.27;48.05;98997.25;6867873;28;20216;-85
2021/06/10 19:12:34;;;;;;;7.03;6.40;;;;;;;27.33;48.84;99042.25;6867356;28;20205;-83
2021/06/10 19:15:56;;;;;;;7.23;6.50;;;;;;;26.72;50.04;99022.38;6868898;28;20227;-83
2021/06/10 19:19:17;;;;;;;7.00;6.40;;;;;;;26.79;49.88;99051.28;6860003;28;20227;-83
2021/06/10 19:22:39;;;;;;;7.70;7.00;;;;;;;26.42;51.66;99072.66;6867831;28;20224;-83
2021/06/10 19:26:01;;;;;;;8.83;7.93;;;;;;;26.47;51.35;99055.97;6868179;28;20233;-83